Time;durP1;ratioP1;P1;durP2;ratioP2;P2;SDS_P1;SDS_P2;PMS_P1;PMS_P2;Temp;Humidity;BMP_temperature;BMP_pressure;BME280_temperature;BME280_humidity;BME280_pressure;Samples;Min_cycle;Max_cycle;Signal;HPM_P1;HPM_P2
2022/03/29 00:01:17;;;;;;;39.60;22.47;;;;;;;16.90;83.90;101583.56;5015304;28;20023;-46
2022/03/29 00:03:42;;;;;;;37.43;20.80;;;;;;;16.93;82.81;101580.44;5015670;28;20182;-46
2022/03/29 00:06:08;;;;;;;45.33;22.67;;;;;;;16.80;84.26;101588.63;5015403;28;20034;-47
2022/03/29 00:08:34;;;;;;;47.70;23.55;;;;;;;16.67;86.75;101578.75;5015386;28;20065;-46
2022/03/29 00:11:00;;;;;;;42.00;22.90;;;;;;;17.04;82.25;101573.50;5015250;28;20030;-49
2022/03/29 00:13:25;;;;;;;41.70;24.03;;;;;;;16.91;82.42;101580.63;5015062;28;20118;-47
2022/03/29 00:15:51;;;;;;;43.20;24.27;;;;;;;16.84;82.09;101577.16;5015378;28;20058;-46
2022/03/29 00:18:16;;;;;;;45.67;24.87;;;;;;;16.72;84.36;101570.81;5015336;28;20276;-49
2022/03/29 00:20:41;;;;;;;42.87;23.53;;;;;;;16.80;83.13;101567.00;5014863;28;20039;-45
2022/03/29 00:23:07;;;;;;;52.00;24.48;;;;;;;16.73;83.46;101567.09;4996481;28;20038;-46
2022/03/29 00:25:33;;;;;;;40.42;23.30;;;;;;;16.58;85.43;101570.06;5015293;28;20048;-47
2022/03/29 00:28:00;;;;;;;41.58;23.67;;;;;;;16.73;83.26;101559.78;5013325;28;20035;-48
2022/03/29 00:30:26;;;;;;;43.22;23.20;;;;;;;16.58;84.63;101561.97;4993573;28;20041;-48
2022/03/29 00:32:51;;;;;;;43.13;24.52;;;;;;;16.53;84.71;101561.81;5015195;28;20389;-46
2022/03/29 00:35:17;;;;;;;44.33;24.47;;;;;;;16.31;87.14;101554.03;5014851;28;20026;-47
2022/03/29 00:37:43;;;;;;;44.65;24.27;;;;;;;16.56;84.51;101554.09;5015257;28;20295;-50
2022/03/29 00:40:11;;;;;;;50.70;25.50;;;;;;;16.55;83.62;101554.31;5015037;28;20038;-47
2022/03/29 00:42:37;;;;;;;44.67;23.70;;;;;;;16.11;89.31;101546.88;5014285;28;20050;-51
2022/03/29 00:45:04;;;;;;;56.40;24.95;;;;;;;16.13;88.91;101546.69;5014750;28;20102;-49
2022/03/29 00:47:29;;;;;;;44.25;24.17;;;;;;;16.20;88.36;101544.75;5014855;28;20022;-48
2022/03/29 00:49:55;;;;;;;44.00;23.35;;;;;;;16.13;87.50;101539.38;4994470;28;20104;-50
2022/03/29 00:52:21;;;;;;;44.10;23.00;;;;;;;16.11;88.31;101533.38;5013891;28;20031;-48
2022/03/29 00:54:47;;;;;;;42.45;22.58;;;;;;;16.16;86.66;101535.44;5014827;28;20042;-49
2022/03/29 00:57:13;;;;;;;42.38;21.88;;;;;;;16.19;86.71;101529.63;5014504;28;20058;-49
2022/03/29 00:59:43;;;;;;;42.20;22.23;;;;;;;16.18;86.44;101531.50;5014804;28;20062;-45
2022/03/29 01:02:09;;;;;;;45.75;23.75;;;;;;;16.20;86.19;101525.88;5014484;28;20034;-48
2022/03/29 01:04:35;;;;;;;45.53;23.05;;;;;;;16.23;85.32;101522.72;5016565;28;20034;-47
2022/03/29 01:07:00;;;;;;;42.63;22.40;;;;;;;16.26;85.08;101525.03;5020880;28;20070;-48
2022/03/29 01:09:26;;;;;;;42.55;22.73;;;;;;;16.24;85.45;101520.88;5021318;28;20046;-47
2022/03/29 01:11:52;;;;;;;44.40;23.27;;;;;;;16.17;85.47;101516.34;5021090;28;20045;-49
2022/03/29 01:14:20;;;;;;;40.30;22.38;;;;;;;16.12;85.87;101518.84;5021054;28;20030;-49
2022/03/29 01:19:29;;;;;;;40.47;22.85;;;;;;;16.00;87.51;101512.50;5005994;28;20038;-48
2022/03/29 01:22:00;;;;;;;48.17;25.10;;;;;;;15.84;89.22;101511.91;5019163;28;20037;-48
2022/03/29 01:24:27;;;;;;;47.00;23.80;;;;;;;15.76;90.39;101509.47;5020708;28;20053;-48
2022/03/29 01:26:56;;;;;;;49.63;24.10;;;;;;;15.51;94.44;101512.88;5021070;28;20038;-50
2022/03/29 01:29:22;;;;;;;45.95;24.50;;;;;;;15.71;91.92;101507.41;5019831;28;20034;-49
2022/03/29 01:31:51;;;;;;;56.90;25.05;;;;;;;15.47;93.40;101496.28;5023313;28;20065;-45
2022/03/29 01:34:19;;;;;;;48.05;24.80;;;;;;;15.71;92.17;101498.50;5020657;28;20031;-52
2022/03/29 01:36:44;;;;;;;49.17;25.60;;;;;;;15.95;89.69;101501.53;5020937;28;20095;-47
2022/03/29 01:39:10;;;;;;;51.78;24.83;;;;;;;15.96;88.82;101498.59;5020741;28;20049;-50
2022/03/29 01:41:35;;;;;;;45.30;23.97;;;;;;;16.05;87.19;101496.47;5019917;28;20042;-47
2022/03/29 01:44:01;;;;;;;46.63;23.50;;;;;;;15.90;89.91;101494.88;5020326;28;20058;-48
2022/03/29 01:46:27;;;;;;;51.28;24.85;;;;;;;15.98;89.55;101499.22;5020367;28;20050;-48
2022/03/29 01:48:53;;;;;;;52.05;26.05;;;;;;;15.87;90.98;101495.28;5020690;28;20038;-50
2022/03/29 01:51:18;;;;;;;47.85;24.83;;;;;;;15.91;91.13;101493.03;5020635;28;20095;-50
2022/03/29 01:53:47;;;;;;;45.43;24.63;;;;;;;15.93;90.20;101492.84;5020943;28;20038;-50
2022/03/29 01:56:12;;;;;;;51.65;25.92;;;;;;;15.90;91.06;101481.41;5020849;28;20045;-48
2022/03/29 01:58:38;;;;;;;48.97;25.60;;;;;;;15.85;91.22;101473.09;5020573;28;20034;-45
2022/03/29 02:01:03;;;;;;;51.97;24.20;;;;;;;15.84;91.37;101478.72;5020368;28;20070;-48
2022/03/29 02:03:29;;;;;;;50.63;26.05;;;;;;;15.82;92.24;101478.94;5020711;28;20041;-46
2022/03/29 02:05:54;;;;;;;53.40;25.67;;;;;;;15.88;91.39;101474.56;5020623;28;20076;-47
2022/03/29 02:08:20;;;;;;;53.07;24.87;;;;;;;15.91;91.08;101468.75;5020638;28;20045;-48
2022/03/29 02:10:46;;;;;;;51.07;27.37;;;;;;;15.84;92.06;101467.94;5020617;28;20050;-48
2022/03/29 02:13:11;;;;;;;46.42;24.70;;;;;;;15.89;91.54;101457.34;5020418;28;20030;-47
2022/03/29 02:15:38;;;;;;;54.13;25.93;;;;;;;16.12;88.70;101456.78;5020080;28;20049;-49
2022/03/29 02:18:03;;;;;;;53.03;24.80;;;;;;;16.04;89.24;101454.38;5016768;28;20279;-46
2022/03/29 02:20:29;;;;;;;47.40;24.97;;;;;;;15.65;94.12;101453.50;5017216;28;20693;-48
2022/03/29 02:22:55;;;;;;;50.97;25.65;;;;;;;15.68;94.50;101448.50;5017454;28;20037;-48
2022/03/29 02:25:21;;;;;;;53.85;26.05;;;;;;;15.95;91.71;101452.97;5017255;28;20034;-48
2022/03/29 02:27:47;;;;;;;49.65;25.42;;;;;;;15.87;92.34;101441.34;5016954;28;20042;-46
2022/03/29 02:30:15;;;;;;;52.50;26.77;;;;;;;15.54;97.26;101445.06;5017372;28;20065;-51
2022/03/29 02:32:42;;;;;;;51.85;26.27;;;;;;;15.74;94.40;101444.13;5017386;28;20038;-47
2022/03/29 02:35:08;;;;;;;52.20;26.58;;;;;;;15.96;91.66;101439.25;5016989;28;20042;-48
2022/03/29 02:37:33;;;;;;;56.45;26.15;;;;;;;15.74;93.47;101433.34;5017262;28;20102;-46
2022/03/29 02:39:59;;;;;;;55.00;26.70;;;;;;;15.96;91.57;101433.88;5016937;28;20041;-48
2022/03/29 02:42:25;;;;;;;52.33;26.15;;;;;;;15.96;91.06;101430.34;4999296;28;20050;-50
2022/03/29 02:44:51;;;;;;;56.17;26.83;;;;;;;15.90;91.24;101423.94;5016869;28;20052;-50
2022/03/29 02:47:16;;;;;;;57.15;26.48;;;;;;;15.90;91.21;101434.75;5016832;28;20069;-52
2022/03/29 02:49:41;;;;;;;56.17;27.40;;;;;;;15.80;92.58;101429.78;5016835;28;20046;-49
2022/03/29 02:52:07;;;;;;;51.10;26.42;;;;;;;15.66;94.92;101425.50;5016659;28;20129;-49
2022/03/29 02:54:33;;;;;;;56.87;28.00;;;;;;;15.73;93.38;101423.59;5016904;28;20126;-48
2022/03/29 02:56:58;;;;;;;58.30;24.90;;;;;;;15.78;92.92;101419.19;5016539;28;20034;-49
2022/03/29 02:59:23;;;;;;;55.93;24.47;;;;;;;15.85;91.90;101421.88;5016528;28;20034;-51
2022/03/29 03:01:49;;;;;;;55.50;26.75;;;;;;;15.71;93.75;101414.91;5016638;28;20026;-48
2022/03/29 03:04:14;;;;;;;46.53;24.07;;;;;;;15.65;95.17;101416.59;4999839;28;20042;-47
2022/03/29 03:06:41;;;;;;;50.60;24.88;;;;;;;15.76;93.11;101404.28;5016678;28;20053;-48
2022/03/29 03:09:07;;;;;;;55.53;27.52;;;;;;;15.65;95.46;101400.41;5016637;28;20102;-46
2022/03/29 03:11:35;;;;;;;61.00;26.80;;;;;;;15.82;93.19;101406.13;5016396;28;20042;-48
2022/03/29 03:14:01;;;;;;;59.60;28.42;;;;;;;15.64;95.55;101393.38;5016381;28;20045;-50
2022/03/29 03:16:26;;;;;;;56.85;26.23;;;;;;;15.56;96.04;101402.53;5016482;28;20038;-49
2022/03/29 03:18:51;;;;;;;55.93;28.20;;;;;;;15.33;97.97;101401.19;5016516;28;20045;-50
2022/03/29 03:21:17;;;;;;;52.63;25.67;;;;;;;15.52;96.63;101395.91;5015850;28;20030;-47
2022/03/29 03:23:43;;;;;;;56.97;27.13;;;;;;;15.55;95.84;101398.19;5016548;28;20102;-52
2022/03/29 03:26:08;;;;;;;60.37;27.63;;;;;;;15.46;97.10;101394.91;5016013;28;20045;-50
2022/03/29 03:28:34;;;;;;;60.50;27.37;;;;;;;15.28;98.56;101384.84;5014995;28;20316;-51
2022/03/29 03:31:00;;;;;;;60.03;27.60;;;;;;;15.21;100.00;101389.41;5016371;28;20125;-51
2022/03/29 03:33:26;;;;;;;56.72;26.40;;;;;;;15.21;100.00;101389.41;5016112;28;20034;-51
2022/03/29 03:35:51;;;;;;;56.67;27.47;;;;;;;15.46;97.76;101376.03;5015932;28;20116;-48
2022/03/29 03:38:17;;;;;;;59.07;26.57;;;;;;;15.63;95.42;101380.94;5015937;28;20038;-46
2022/03/29 03:40:43;;;;;;;56.40;26.67;;;;;;;15.67;93.83;101368.66;5016030;28;20049;-54
2022/03/29 03:43:09;;;;;;;54.83;26.13;;;;;;;15.63;95.00;101379.06;5015124;28;20061;-48
2022/03/29 03:45:35;;;;;;;56.22;26.98;;;;;;;15.32;99.08;101380.66;5015807;28;20034;-52
2022/03/29 03:48:03;;;;;;;63.13;27.20;;;;;;;15.48;98.96;101383.91;5015320;28;20035;-52
2022/03/29 03:50:30;;;;;;;57.42;26.30;;;;;;;15.42;98.30;101379.38;5015568;28;20046;-48
2022/03/29 03:52:56;;;;;;;61.38;29.05;;;;;;;15.34;100.00;101377.75;5015822;28;20104;-49
2022/03/29 03:55:22;;;;;;;62.65;28.73;;;;;;;15.26;100.00;101378.84;5015554;28;20062;-48
2022/03/29 03:57:48;;;;;;;65.03;27.90;;;;;;;15.40;100.00;101376.06;5015344;28;20034;-48
2022/03/29 04:00:15;;;;;;;58.55;27.67;;;;;;;15.53;98.05;101373.31;5015828;28;20093;-46
2022/03/29 04:02:41;;;;;;;60.72;28.23;;;;;;;15.59;97.15;101372.44;5015862;28;20046;-53
2022/03/29 04:05:13;;;;;;;58.88;27.73;;;;;;;15.57;96.52;101366.44;5015595;28;20057;-52
2022/03/29 04:07:39;;;;;;;53.85;26.15;;;;;;;15.34;99.79;101372.38;5015400;28;20046;-51
2022/03/29 04:10:07;;;;;;;61.33;27.17;;;;;;;15.44;98.18;101369.19;5015480;28;20065;-49
2022/03/29 04:12:33;;;;;;;57.42;27.63;;;;;;;15.40;98.92;101365.28;5015133;28;20049;-52
2022/03/29 04:14:59;;;;;;;55.55;28.00;;;;;;;15.52;97.13;101363.56;5015340;28;20046;-49
2022/03/29 04:17:24;;;;;;;64.83;26.57;;;;;;;15.56;95.78;101358.56;5015284;28;20106;-50
2022/03/29 04:19:50;;;;;;;56.50;27.37;;;;;;;15.53;96.79;101362.53;5015288;28;20069;-50
2022/03/29 04:22:18;;;;;;;62.55;28.98;;;;;;;15.37;98.40;101353.09;5014583;28;20299;-48
2022/03/29 04:24:44;;;;;;;62.35;27.70;;;;;;;15.43;98.22;101351.38;5015485;28;20046;-47
2022/03/29 04:27:10;;;;;;;60.80;29.20;;;;;;;15.48;98.51;101351.56;5014774;28;20285;-51
2022/03/29 04:29:35;;;;;;;61.13;29.60;;;;;;;15.54;97.24;101344.47;5015079;28;20034;-51
2022/03/29 04:32:01;;;;;;;63.77;29.40;;;;;;;15.53;97.76;101343.66;5015136;28;20275;-47
2022/03/29 04:34:26;;;;;;;67.13;26.95;;;;;;;15.59;96.12;101348.19;5015017;28;20120;-49
2022/03/29 04:36:52;;;;;;;56.03;26.88;;;;;;;15.62;96.36;101339.66;5014880;28;20062;-48
2022/03/29 04:39:18;;;;;;;57.73;26.47;;;;;;;15.52;97.98;101343.88;5014582;28;20042;-49
2022/03/29 04:41:43;;;;;;;63.43;27.67;;;;;;;15.50;98.24;101338.72;5014791;28;20045;-49
2022/03/29 04:44:09;;;;;;;66.72;28.25;;;;;;;15.20;100.00;101336.56;5014396;28;20324;-49
2022/03/29 04:46:34;;;;;;;58.43;25.87;;;;;;;15.58;97.05;101332.25;5008873;28;20038;-47
2022/03/29 04:49:00;;;;;;;56.87;27.37;;;;;;;15.58;95.87;101333.03;5008627;28;20042;-47
2022/03/29 04:51:25;;;;;;;54.77;24.23;;;;;;;15.65;94.54;101337.56;5006524;28;20038;-47
2022/03/29 04:53:50;;;;;;;49.73;23.97;;;;;;;15.73;93.02;101321.16;5008072;28;20081;-46
2022/03/29 04:56:17;;;;;;;52.83;25.98;;;;;;;15.77;92.42;101322.34;5010008;28;20034;-50
2022/03/29 04:58:43;;;;;;;54.40;25.10;;;;;;;15.75;92.53;101319.88;5009051;28;20045;-48
2022/03/29 05:01:09;;;;;;;54.07;25.87;;;;;;;15.63;94.31;101321.63;5003556;28;20046;-48
2022/03/29 05:03:35;;;;;;;55.92;27.02;;;;;;;15.52;95.52;101315.06;5010700;28;20061;-48
2022/03/29 05:06:00;;;;;;;52.78;25.13;;;;;;;15.65;94.10;101321.38;5009100;28;20048;-46
2022/03/29 05:08:26;;;;;;;60.87;24.57;;;;;;;15.37;95.77;101327.97;4980697;28;20054;-52
2022/03/29 05:10:51;;;;;;;53.60;25.73;;;;;;;15.49;95.24;101319.00;5013883;28;20045;-48
2022/03/29 05:13:17;;;;;;;50.72;24.45;;;;;;;15.46;94.61;101326.72;5014209;28;20049;-47
2022/03/29 05:15:44;;;;;;;51.28;23.63;;;;;;;15.46;94.70;101315.94;5014069;28;20044;-50
2022/03/29 05:18:10;;;;;;;51.28;24.17;;;;;;;15.49;93.51;101320.88;5014344;28;20026;-48
2022/03/29 05:20:36;;;;;;;55.80;26.65;;;;;;;15.42;94.79;101312.81;5013614;28;20042;-46
2022/03/29 05:23:02;;;;;;;55.50;25.67;;;;;;;15.36;95.47;101320.94;5014151;28;20098;-47
2022/03/29 05:25:28;;;;;;;51.92;23.75;;;;;;;15.30;96.41;101319.94;5015669;28;20072;-49
2022/03/29 05:27:57;;;;;;;48.17;22.88;;;;;;;15.34;95.82;101308.50;5013951;28;20034;-50
2022/03/29 05:30:23;;;;;;;50.80;22.40;;;;;;;15.23;96.43;101322.69;5013893;28;20045;-51
2022/03/29 05:32:57;;;;;;;50.67;22.10;;;;;;;15.32;95.01;101313.28;5013152;28;20030;-46
2022/03/29 05:35:26;;;;;;;51.58;23.75;;;;;;;15.29;94.89;101311.03;5013535;28;20045;-48
2022/03/29 05:37:51;;;;;;;47.28;22.38;;;;;;;15.12;96.14;101312.56;5013465;28;20038;-47
2022/03/29 05:40:17;;;;;;;45.95;21.80;;;;;;;14.99;99.43;101311.59;4996227;28;20034;-48
2022/03/29 05:42:44;;;;;;;49.45;23.73;;;;;;;15.18;95.55;101315.22;5013078;28;20081;-50
2022/03/29 05:45:12;;;;;;;48.67;23.45;;;;;;;15.01;97.77;101314.06;5014140;28;20053;-49
2022/03/29 05:50:24;;;;;;;48.70;21.30;;;;;;;15.15;95.77;101309.44;5013575;28;20052;-48
2022/03/29 05:52:49;;;;;;;44.72;22.13;;;;;;;15.22;95.19;101309.41;5016867;28;20045;-47
2022/03/29 05:55:15;;;;;;;45.63;21.47;;;;;;;15.11;96.78;101303.66;5017599;28;20042;-49
2022/03/29 05:57:41;;;;;;;56.50;23.58;;;;;;;14.95;98.76;101306.84;5000779;28;20031;-51
2022/03/29 06:00:10;;;;;;;46.70;21.10;;;;;;;14.69;100.00;101313.94;5017201;28;20042;-46
2022/03/29 06:02:42;;;;;;;46.88;20.58;;;;;;;14.60;100.00;101313.34;5017080;28;20030;-48
2022/03/29 06:05:09;;;;;;;48.35;20.58;;;;;;;14.56;100.00;101304.84;5017579;28;20038;-48
2022/03/29 06:07:35;;;;;;;43.28;20.67;;;;;;;14.71;100.00;101293.06;5001964;28;20065;-45
2022/03/29 06:10:02;;;;;;;42.05;21.38;;;;;;;14.83;100.00;101295.91;5017761;28;20470;-48
2022/03/29 06:12:27;;;;;;;44.50;20.77;;;;;;;14.98;99.91;101299.13;5017657;28;20038;-48
2022/03/29 06:14:52;;;;;;;46.67;20.97;;;;;;;14.99;100.00;101297.28;5017072;28;20042;-48
2022/03/29 06:17:18;;;;;;;41.43;21.20;;;;;;;14.67;100.00;101295.28;5017229;28;20053;-50
2022/03/29 06:19:45;;;;;;;46.72;21.85;;;;;;;14.90;100.00;101294.84;5017839;28;20034;-47
2022/03/29 06:22:11;;;;;;;50.08;22.58;;;;;;;14.92;100.00;101294.63;5017597;28;20035;-49
2022/03/29 06:24:38;;;;;;;45.92;22.15;;;;;;;14.95;100.00;101288.81;5017517;28;20042;-48
2022/03/29 06:27:03;;;;;;;41.85;22.02;;;;;;;14.96;100.00;101298.53;5017500;28;20042;-49
2022/03/29 06:29:29;;;;;;;51.03;23.48;;;;;;;15.00;100.00;101299.78;5017395;28;20061;-47
2022/03/29 06:31:55;;;;;;;45.00;22.20;;;;;;;15.08;100.00;101297.88;5017355;28;20027;-47
2022/03/29 06:34:21;;;;;;;49.53;22.67;;;;;;;15.03;100.00;101302.03;5017397;28;20071;-49
2022/03/29 06:36:46;;;;;;;46.50;22.60;;;;;;;14.73;100.00;101297.16;5017318;28;20045;-51
2022/03/29 06:39:13;;;;;;;43.75;22.15;;;;;;;15.03;100.00;101303.91;5017078;28;20062;-47
2022/03/29 06:41:41;;;;;;;44.03;19.30;;;;;;;14.71;100.00;101303.81;5016922;28;20030;-50
2022/03/29 06:44:08;;;;;;;45.47;22.33;;;;;;;14.86;100.00;101308.94;5016992;28;20046;-49
2022/03/29 06:46:34;;;;;;;45.97;22.17;;;;;;;14.79;100.00;101306.25;5016957;28;20096;-48
2022/03/29 06:49:02;;;;;;;48.63;21.25;;;;;;;14.70;100.00;101302.94;5017138;28;20048;-49
2022/03/29 06:51:29;;;;;;;40.10;20.45;;;;;;;14.58;100.00;101299.25;5016877;28;20061;-50
2022/03/29 06:53:55;;;;;;;39.35;19.45;;;;;;;14.51;100.00;101303.81;5017033;28;20026;-47
2022/03/29 06:56:20;;;;;;;39.13;19.53;;;;;;;14.74;100.00;101303.38;5016600;28;20034;-50
2022/03/29 06:58:45;;;;;;;42.07;21.27;;;;;;;15.04;99.81;101308.25;5016648;28;20050;-47
2022/03/29 07:01:11;;;;;;;41.88;19.98;;;;;;;15.09;99.73;101307.59;5016794;28;20045;-48
2022/03/29 07:03:37;;;;;;;43.95;21.08;;;;;;;15.30;96.34;101296.53;5016379;28;20062;-51
2022/03/29 07:06:06;;;;;;;42.50;21.13;;;;;;;15.16;99.19;101306.53;5016648;28;20050;-47
2022/03/29 07:08:32;;;;;;;41.28;20.70;;;;;;;15.40;96.76;101300.59;5016531;28;20038;-47
2022/03/29 07:11:16;;;;;;;;;;;;;;;15.33;98.25;101306.88;5017094;28;20074;-48
2022/03/29 07:13:44;;;;;;;39.75;19.80;;;;;;;15.33;98.61;101306.88;5001495;28;19918;-47
2022/03/29 07:16:10;;;;;;;43.42;19.30;;;;;;;15.52;96.50;101315.06;5016574;28;20049;-50
2022/03/29 07:18:36;;;;;;;42.25;20.63;;;;;;;15.62;94.55;101312.69;5016649;28;20042;-48
2022/03/29 07:21:01;;;;;;;42.40;20.17;;;;;;;15.67;94.57;101316.59;5016585;28;20037;-51
2022/03/29 07:23:29;;;;;;;44.13;19.38;;;;;;;15.52;96.08;101315.06;5016297;28;20048;-52
2022/03/29 07:25:56;;;;;;;42.22;20.73;;;;;;;15.31;98.53;101324.28;5016378;28;20038;-46
2022/03/29 07:28:23;;;;;;;41.85;19.42;;;;;;;15.39;97.30;101320.50;5015686;28;20050;-49
2022/03/29 07:30:49;;;;;;;41.72;20.33;;;;;;;15.68;93.68;101319.09;5015967;28;20053;-48
2022/03/29 07:33:17;;;;;;;35.15;17.60;;;;;;;15.76;90.33;101320.72;5016179;28;20102;-47
2022/03/29 07:35:44;;;;;;;41.65;19.45;;;;;;;15.43;97.08;101311.78;5016560;28;20037;-50
2022/03/29 07:38:10;;;;;;;42.45;20.73;;;;;;;15.60;94.94;101305.88;5016015;28;20026;-49
2022/03/29 07:40:38;;;;;;;39.50;19.75;;;;;;;15.96;91.23;101314.38;5016150;28;20066;-49
2022/03/29 07:43:05;;;;;;;35.58;19.10;;;;;;;15.99;89.71;101308.53;5015642;28;20042;-50
2022/03/29 07:45:31;;;;;;;40.63;19.17;;;;;;;16.04;89.29;101311.38;5015794;28;20042;-48
2022/03/29 07:47:56;;;;;;;42.25;20.38;;;;;;;15.94;90.52;101313.75;5015609;28;20030;-52
2022/03/29 07:50:24;;;;;;;39.53;19.38;;;;;;;16.04;90.35;101314.09;5015700;28;20072;-46
2022/03/29 07:52:50;;;;;;;39.97;19.02;;;;;;;15.72;93.49;101306.81;5015451;28;20034;-49
2022/03/29 07:55:16;;;;;;;39.53;19.67;;;;;;;15.81;93.08;101310.09;5015421;28;20049;-50
2022/03/29 07:57:41;;;;;;;40.30;21.33;;;;;;;15.74;93.77;101296.63;5015376;28;20117;-48
2022/03/29 08:02:53;;;;;;;39.88;18.25;;;;;;;15.95;90.52;101297.34;5014966;28;20046;-51
2022/03/29 08:05:19;;;;;;;43.10;19.88;;;;;;;15.40;99.12;101290.66;5015240;28;20034;-50
2022/03/29 08:07:45;;;;;;;39.22;19.73;;;;;;;15.79;93.67;101296.00;5015502;28;20034;-48
2022/03/29 08:10:12;;;;;;;41.10;20.88;;;;;;;16.10;90.63;101297.00;5015379;28;20034;-48
2022/03/29 08:12:40;;;;;;;42.20;20.92;;;;;;;16.13;90.53;101296.56;5015321;28;20034;-47
2022/03/29 08:15:06;;;;;;;39.35;19.67;;;;;;;16.01;91.58;101295.66;5014365;28;20030;-47
2022/03/29 08:17:33;;;;;;;40.80;21.00;;;;;;;16.25;88.77;101295.84;5015171;28;20053;-46
2022/03/29 08:19:59;;;;;;;44.65;21.42;;;;;;;16.02;90.51;101291.91;5015133;28;20090;-50
2022/03/29 08:22:25;;;;;;;49.33;22.85;;;;;;;15.97;91.96;101291.75;5015224;28;20045;-47
2022/03/29 08:24:50;;;;;;;47.87;23.20;;;;;;;16.03;92.43;101288.16;5015173;28;20066;-50
2022/03/29 08:27:16;;;;;;;49.15;22.63;;;;;;;16.27;89.91;101282.94;5015005;28;20121;-48
2022/03/29 08:29:41;;;;;;;44.63;22.37;;;;;;;16.25;89.77;101285.06;5015344;28;20034;-47
2022/03/29 08:32:07;;;;;;;45.40;23.20;;;;;;;16.27;90.32;101277.56;5015147;28;20026;-51
2022/03/29 08:34:33;;;;;;;46.70;22.23;;;;;;;16.04;91.76;101279.84;5015206;28;20091;-49
2022/03/29 08:36:58;;;;;;;46.53;22.80;;;;;;;16.18;91.25;101275.16;5014884;28;20049;-52
2022/03/29 08:39:24;;;;;;;40.10;19.90;;;;;;;16.06;88.63;101276.91;5014785;28;20268;-51
2022/03/29 08:41:55;;;;;;;47.67;22.08;;;;;;;16.19;90.16;101276.81;5014746;28;20034;-49
2022/03/29 08:44:25;;;;;;;47.47;22.00;;;;;;;16.10;91.84;101282.72;5014574;28;20054;-49
2022/03/29 08:46:51;;;;;;;47.63;24.38;;;;;;;16.21;89.36;101279.25;5014579;28;20113;-52
2022/03/29 08:49:19;;;;;;;44.70;21.85;;;;;;;16.48;87.27;101282.53;5014705;28;20094;-48
2022/03/29 08:51:45;;;;;;;50.05;24.15;;;;;;;16.51;86.85;101289.38;5014874;28;20030;-51
2022/03/29 08:54:11;;;;;;;47.00;22.95;;;;;;;16.30;89.45;101287.91;5014736;28;20069;-47
2022/03/29 08:56:40;;;;;;;50.55;24.83;;;;;;;16.45;87.98;101280.28;5014738;28;20050;-48
2022/03/29 08:59:06;;;;;;;44.03;22.23;;;;;;;16.41;88.18;101284.47;5014596;28;20074;-50
2022/03/29 09:01:32;;;;;;;50.72;23.58;;;;;;;16.73;85.44;101273.53;5014525;28;20054;-48
2022/03/29 09:04:11;;;;;;;62.83;23.58;;;;;;;16.69;84.08;101285.00;5014720;28;20045;-48
2022/03/29 09:06:56;;;;;;;52.85;22.92;;;;;;;16.60;85.31;101277.22;5014790;28;20062;-51
2022/03/29 09:09:38;;;;;;;48.20;23.05;;;;;;;16.61;85.38;101272.66;5014538;28;20106;-48
2022/03/29 09:12:17;;;;;;;55.83;25.65;;;;;;;16.54;86.36;101279.97;5014452;28;20038;-52
2022/03/29 09:14:58;;;;;;;45.47;23.13;;;;;;;16.36;87.24;101278.91;5014635;28;20034;-50
2022/03/29 09:17:35;;;;;;;53.03;23.77;;;;;;;16.56;85.50;101280.56;5014554;28;20050;-52
2022/03/29 09:20:27;;;;;;;50.43;23.33;;;;;;;16.45;85.36;101279.44;5014094;28;20046;-49
2022/03/29 09:22:55;;;;;;;45.45;22.23;;;;;;;16.80;80.57;101295.06;5010624;28;20082;-50
2022/03/29 09:25:37;;;;;;;48.50;21.95;;;;;;;16.75;79.96;101290.31;4998037;28;20038;-47
2022/03/29 09:28:05;;;;;;;40.78;20.33;;;;;;;16.78;78.74;101292.56;5018425;28;20030;-49
2022/03/29 09:30:38;;;;;;;41.95;20.50;;;;;;;17.13;75.25;101290.31;5018622;28;20034;-50
2022/03/29 09:33:07;;;;;;;45.78;22.13;;;;;;;17.05;75.46;101283.34;5001173;28;20049;-51
2022/03/29 09:35:35;;;;;;;52.30;23.77;;;;;;;16.91;76.49;101282.66;5017865;28;20045;-48
2022/03/29 09:38:01;;;;;;;52.90;25.10;;;;;;;17.17;74.33;101286.09;5018107;28;20042;-51
2022/03/29 09:40:36;;;;;;;47.38;23.50;;;;;;;17.21;74.18;101281.88;5017902;28;20069;-48
2022/03/29 09:43:24;;;;;;;48.15;23.23;;;;;;;17.20;74.20;101288.34;5017824;28;20039;-52
2022/03/29 09:45:52;;;;;;;46.85;22.88;;;;;;;17.14;73.79;101283.88;5018083;28;20057;-50
2022/03/29 09:48:21;;;;;;;44.20;22.23;;;;;;;16.97;75.47;101276.34;5018153;28;20041;-50
2022/03/29 09:50:46;;;;;;;48.75;23.02;;;;;;;17.08;75.07;101282.88;5017949;28;20049;-50
2022/03/29 09:53:34;;;;;;;45.20;23.77;;;;;;;17.13;73.60;101276.81;5018333;28;20030;-52
2022/03/29 09:56:00;;;;;;;40.95;20.95;;;;;;;17.25;72.58;101280.38;5003955;28;20026;-50
2022/03/29 09:58:26;;;;;;;46.58;22.38;;;;;;;17.23;71.96;101279.78;5018131;28;20038;-50
2022/03/29 10:00:51;;;;;;;43.23;21.63;;;;;;;17.28;70.95;101274.50;5001040;28;20039;-48
2022/03/29 10:03:18;;;;;;;48.65;23.20;;;;;;;17.38;69.97;101270.44;5000557;28;20034;-47
2022/03/29 10:05:49;;;;;;;47.03;23.15;;;;;;;17.40;69.21;101268.31;5001719;28;20034;-52
2022/03/29 10:11:03;;;;;;;47.17;21.58;;;;;;;17.50;67.88;101265.88;5017835;28;20034;-52
2022/03/29 10:13:30;;;;;;;42.70;22.17;;;;;;;17.49;67.44;101264.22;5017120;28;20042;-47
2022/03/29 10:15:56;;;;;;;47.45;22.38;;;;;;;17.49;66.70;101261.50;5017612;28;20034;-51
2022/03/29 10:18:25;;;;;;;48.33;23.85;;;;;;;17.60;65.58;101266.13;5017854;28;20112;-49
2022/03/29 10:20:54;;;;;;;42.85;21.58;;;;;;;17.86;64.13;101261.34;5017829;28;20037;-49
2022/03/29 10:23:22;;;;;;;48.30;24.37;;;;;;;18.11;63.00;101273.84;5017566;28;20058;-50
2022/03/29 10:25:50;;;;;;;51.08;21.10;;;;;;;18.18;61.87;101266.44;5017441;28;20303;-48
2022/03/29 10:28:16;;;;;;;46.90;22.60;;;;;;;17.92;62.31;101265.81;5017453;28;20053;-47
2022/03/29 10:30:42;;;;;;;43.78;23.25;;;;;;;18.25;60.71;101260.09;5017431;28;20300;-48
2022/03/29 10:33:26;;;;;;;48.93;24.70;;;;;;;18.32;59.74;101263.50;5017358;28;20102;-51
2022/03/29 10:36:12;;;;;;;45.60;23.23;;;;;;;18.58;57.97;101258.63;5002058;28;20280;-51
2022/03/29 10:38:47;;;;;;;57.27;25.53;;;;;;;18.65;57.44;101272.84;5016278;28;20279;-53
2022/03/29 10:41:33;;;;;;;44.07;23.33;;;;;;;18.33;58.08;101265.13;5017050;28;20345;-53
2022/03/29 10:44:11;;;;;;;43.63;21.98;;;;;;;18.48;57.77;101268.19;5002692;28;20280;-49
2022/03/29 10:46:37;;;;;;;46.47;23.43;;;;;;;18.85;56.32;101255.34;5016789;28;20049;-52
2022/03/29 10:49:22;;;;;;;46.37;23.90;;;;;;;18.86;56.22;101257.84;5016902;28;20272;-52
2022/03/29 10:52:19;;;;;;;44.73;22.70;;;;;;;18.96;55.75;101257.22;5000907;28;20030;-49
2022/03/29 10:54:45;;;;;;;46.55;23.55;;;;;;;18.74;55.88;101255.16;5013745;28;20306;-48
2022/03/29 10:57:14;;;;;;;49.23;24.93;;;;;;;18.76;55.62;101250.34;5016707;28;20038;-55
2022/03/29 10:59:40;;;;;;;46.40;23.47;;;;;;;18.83;55.15;101250.19;5016253;28;20105;-47
2022/03/29 11:02:08;;;;;;;44.47;22.33;;;;;;;18.93;54.48;101252.28;5016384;28;20299;-50
2022/03/29 11:04:34;;;;;;;54.63;25.87;;;;;;;19.00;54.60;101250.28;4999416;28;20038;-49
2022/03/29 11:07:12;;;;;;;48.72;24.20;;;;;;;19.18;54.40;101248.44;5016594;28;20426;-49
2022/03/29 11:09:40;;;;;;;46.57;23.63;;;;;;;19.48;53.00;101231.84;5016061;28;20034;-49
2022/03/29 11:12:06;;;;;;;46.33;23.47;;;;;;;20.12;51.08;101240.75;5016205;28;20279;-49
2022/03/29 11:14:33;;;;;;;40.95;21.90;;;;;;;20.22;49.77;101234.63;5016395;28;20276;-48
2022/03/29 11:17:16;;;;;;;43.90;22.57;;;;;;;20.58;48.38;101229.63;5016336;28;20049;-50
2022/03/29 11:19:50;;;;;;;40.23;21.60;;;;;;;20.27;47.65;101220.28;5016189;28;20272;-50
2022/03/29 11:22:21;;;;;;;41.27;23.23;;;;;;;21.25;46.43;101228.72;5016048;28;20291;-51